Time,TemperatureF,DewpointF,PressureIn,WindDirection,WindDirectionDegrees,WindSpeedMPH,WindSpeedGustMPH,Humidity,HourlyPrecipIn,Conditions,Clouds,dailyrainin,SolarRadiationWatts/m^2,SoftwareType,DateUTC
2013-01-24 00:02:00,24.6,9.0,30.09,East,91,0.0,1.0,51,0.00,,,0.00,0,Wunderground v.1.15,2013-01-24 05:02:00,
2013-01-24 00:04:00,24.6,8.6,30.09,East,91,0.0,1.0,50,0.00,,,0.00,0,Wunderground v.1.15,2013-01-24 05:04:00,
2013-01-24 00:05:00,24.6,8.6,30.09,ENE,67,1.0,1.0,50,0.00,,,0.00,0,Wunderground v.1.15,2013-01-24 05:05:00,
2013-01-24 00:06:00,24.6,8.6,30.08,ENE,65,1.0,1.0,50,0.00,,,0.00,0,Wunderground v.1.15,2013-01-24 05:06:00,
2013-01-24 00:11:00,24.6,8.6,30.09,ENE,65,0.0,0.0,50,0.00,,,0.00,0,Wunderground v.1.15,2013-01-24 05:11:00,
2013-01-24 00:18:00,24.5,8.9,30.08,North,358,1.0,3.0,51,0.00,,,0.00,0,Wunderground v.1.15,2013-01-24 05:18:00,
2013-01-24 00:23:00,24.4,8.8,30.09,North,358,0.0,1.0,51,0.00,,,0.00,0,Wunderground v.1.15,2013-01-24 05:23:00,
2013-01-24 00:28:00,24.4,9.3,30.09,North,358,0.0,1.0,52,0.00,,,0.00,0,Wunderground v.1.15,2013-01-24 05:28:00,
2013-01-24 00:35:00,24.4,8.8,30.09,North,358,0.0,0.0,51,0.00,,,0.00,0,Wunderground v.1.15,2013-01-24 05:35:00,
2013-01-24 00:41:00,24.3,8.7,30.09,North,358,0.0,0.0,51,0.00,,,0.00,0,Wunderground v.1.15,2013-01-24 05:41:00,
2013-01-24 00:46:00,24.3,8.7,30.09,North,358,0.0,0.0,51,0.00,,,0.00,0,Wunderground v.1.15,2013-01-24 05:46:00,
2013-01-24 00:51:00,24.3,8.7,30.09,North,357,0.0,0.0,51,0.00,,,0.00,0,Wunderground v.1.15,2013-01-24 05:51:00,
2013-01-24 00:57:00,24.3,9.2,30.09,North,358,0.0,1.0,52,0.00,,,0.00,0,Wunderground v.1.15,2013-01-24 05:57:00,
2013-01-24 01:04:00,24.3,9.2,30.10,North,357,0.0,0.0,52,0.00,,,0.00,0,Wunderground v.1.15,2013-01-24 06:04:00,
2013-01-24 01:09:00,24.3,9.6,30.09,North,358,0.0,0.0,53,0.00,,,0.00,0,Wunderground v.1.15,2013-01-24 06:09:00,
2013-01-24 01:14:00,24.2,9.1,30.09,North,357,0.0,0.0,52,0.00,,,0.00,0,Wunderground v.1.15,2013-01-24 06:14:00,
2013-01-24 01:20:00,24.2,9.1,30.10,North,358,0.0,0.0,52,0.00,,,0.00,0,Wunderground v.1.15,2013-01-24 06:20:00,
2013-01-24 01:25:00,24.2,9.1,30.10,North,358,0.0,0.0,52,0.00,,,0.00,0,Wunderground v.1.15,2013-01-24 06:25:00,
2013-01-24 01:31:00,24.2,9.5,30.10,North,358,0.0,0.0,53,0.00,,,0.00,0,Wunderground v.1.15,2013-01-24 06:31:00,
2013-01-24 01:37:00,24.3,10.0,30.10,North,357,0.0,0.0,54,0.00,,,0.00,0,Wunderground v.1.15,2013-01-24 06:37:00,
2013-01-24 01:42:00,24.3,10.0,30.10,North,358,1.0,1.0,54,0.00,,,0.00,0,Wunderground v.1.15,2013-01-24 06:42:00,
2013-01-24 01:48:00,24.3,10.4,30.10,North,358,0.0,1.0,55,0.00,,,0.00,0,Wunderground v.1.15,2013-01-24 06:48:00,
2013-01-24 01:53:00,24.3,10.4,30.10,North,357,0.0,0.0,55,0.00,,,0.00,0,Wunderground v.1.15,2013-01-24 06:53:00,
2013-01-24 01:58:00,24.2,10.7,30.10,North,358,0.0,1.0,56,0.00,,,0.00,0,Wunderground v.1.15,2013-01-24 06:58:00,
2013-01-24 02:04:00,24.0,10.6,30.10,North,358,0.0,2.0,56,0.00,,,0.00,0,Wunderground v.1.15,2013-01-24 07:04:00,
2013-01-24 02:09:00,24.0,10.6,30.10,North,357,0.0,2.0,56,0.00,,,0.00,0,Wunderground v.1.15,2013-01-24 07:09:00,
2013-01-24 02:14:00,23.9,10.9,30.10,North,358,0.0,2.0,57,0.00,,,0.00,0,Wunderground v.1.15,2013-01-24 07:14:00,
2013-01-24 02:19:00,23.8,10.4,30.10,NW,321,0.0,4.0,56,0.00,,,0.00,0,Wunderground v.1.15,2013-01-24 07:19:00,
2013-01-24 02:24:00,23.8,10.4,30.11,SW,227,1.0,5.0,56,0.00,,,0.00,0,Wunderground v.1.15,2013-01-24 07:24:00,
2013-01-24 02:29:00,23.7,10.3,30.11,WNW,298,2.0,2.0,56,0.00,,,0.00,0,Wunderground v.1.15,2013-01-24 07:29:00,
2013-01-24 02:34:00,23.7,9.9,30.11,WNW,298,0.0,2.0,55,0.00,,,0.00,0,Wunderground v.1.15,2013-01-24 07:34:00,
2013-01-24 02:39:00,23.7,10.3,30.12,WNW,298,0.0,0.0,56,0.00,,,0.00,0,Wunderground v.1.15,2013-01-24 07:39:00,
2013-01-24 02:44:00,23.7,10.3,30.12,WNW,298,1.0,3.0,56,0.00,,,0.00,0,Wunderground v.1.15,2013-01-24 07:44:00,
2013-01-24 02:49:00,23.7,10.3,30.12,WNW,298,2.0,2.0,56,0.00,,,0.00,0,Wunderground v.1.15,2013-01-24 07:49:00,
2013-01-24 02:54:00,23.7,10.3,30.13,WNW,298,2.0,3.0,56,0.00,,,0.00,0,Wunderground v.1.15,2013-01-24 07:54:00,
2013-01-24 02:59:00,23.8,10.4,30.14,WNW,298,2.0,2.0,56,0.00,,,0.00,0,Wunderground v.1.15,2013-01-24 07:59:00,
2013-01-24 03:04:00,23.9,10.5,30.15,WNW,298,0.0,3.0,56,0.00,,,0.00,0,Wunderground v.1.15,2013-01-24 08:04:00,
2013-01-24 03:09:00,24.1,10.2,30.15,NW,307,2.0,2.0,55,0.00,,,0.00,0,Wunderground v.1.15,2013-01-24 08:09:00,
2013-01-24 03:14:00,24.1,10.6,30.16,WSW,251,1.0,2.0,56,0.00,,,0.00,0,Wunderground v.1.15,2013-01-24 08:14:00,
2013-01-24 03:20:00,24.5,11.0,30.17,WNW,289,7.0,7.0,56,0.00,,,0.00,0,Wunderground v.1.15,2013-01-24 08:20:00,
2013-01-24 03:25:00,24.7,11.2,30.17,NW,312,6.0,11.0,56,0.00,,,0.00,0,Wunderground v.1.15,2013-01-24 08:25:00,
2013-01-24 03:32:00,24.8,11.7,30.18,NW,325,3.0,7.0,57,0.00,,,0.00,0,Wunderground v.1.15,2013-01-24 08:32:00,
2013-01-24 03:37:00,24.8,12.5,30.18,NNW,329,3.0,7.0,59,0.00,,,0.00,0,Wunderground v.1.15,2013-01-24 08:37:00,
2013-01-24 03:42:00,24.6,12.3,30.18,North,354,3.0,7.0,59,0.00,,,0.00,0,Wunderground v.1.15,2013-01-24 08:42:00,
2013-01-24 03:47:00,24.2,12.7,30.19,NW,326,4.0,7.0,61,0.00,,,0.00,0,Wunderground v.1.15,2013-01-24 08:47:00,
2013-01-24 03:52:00,24.0,12.9,30.20,North,357,2.0,5.0,62,0.00,,,0.00,0,Wunderground v.1.15,2013-01-24 08:52:00,
2013-01-24 03:57:00,23.9,13.1,30.20,North,352,4.0,7.0,63,0.00,,,0.00,0,Wunderground v.1.15,2013-01-24 08:57:00,
2013-01-24 04:02:00,23.8,11.9,30.20,North,356,4.0,8.0,60,0.00,,,0.00,0,Wunderground v.1.15,2013-01-24 09:02:00,
2013-01-24 04:07:00,23.8,12.3,30.20,WNW,283,3.0,8.0,61,0.00,,,0.00,0,Wunderground v.1.15,2013-01-24 09:07:00,
2013-01-24 04:12:00,23.8,12.3,30.21,North,350,5.0,6.0,61,0.00,,,0.00,0,Wunderground v.1.15,2013-01-24 09:12:00,
2013-01-24 04:17:00,23.7,12.2,30.21,WNW,300,5.0,15.0,61,0.00,,,0.00,0,Wunderground v.1.15,2013-01-24 09:17:00,
2013-01-24 04:22:00,23.6,12.5,30.22,NNW,337,2.0,9.0,62,0.00,,,0.00,0,Wunderground v.1.15,2013-01-24 09:22:00,
2013-01-24 04:27:00,23.6,12.1,30.22,NNW,335,5.0,9.0,61,0.00,,,0.00,0,Wunderground v.1.15,2013-01-24 09:27:00,
2013-01-24 04:33:00,23.6,12.8,30.22,NW,316,5.0,6.0,63,0.00,,,0.00,0,Wunderground v.1.15,2013-01-24 09:33:00,
2013-01-24 04:38:00,23.6,13.2,30.23,NNW,329,1.0,7.0,64,0.00,,,0.00,0,Wunderground v.1.15,2013-01-24 09:38:00,
2013-01-24 04:43:00,23.6,13.2,30.24,NNW,330,2.0,5.0,64,0.00,,,0.00,0,Wunderground v.1.15,2013-01-24 09:43:00,
2013-01-24 04:48:00,23.5,13.8,30.24,North,355,3.0,7.0,66,0.00,,,0.00,0,Wunderground v.1.15,2013-01-24 09:48:00,
2013-01-24 04:53:00,23.2,14.5,30.24,NW,316,4.0,9.0,69,0.00,,,0.00,0,Wunderground v.1.15,2013-01-24 09:53:00,
2013-01-24 04:58:00,23.0,14.7,30.24,North,350,5.0,9.0,70,0.00,,,0.00,0,Wunderground v.1.15,2013-01-24 09:58:00,
2013-01-24 05:03:00,22.7,15.3,30.25,NW,313,3.0,10.0,73,0.00,,,0.00,0,Wunderground v.1.15,2013-01-24 10:03:00,
2013-01-24 05:08:00,22.6,14.9,30.25,NW,324,2.0,10.0,72,0.00,,,0.00,0,Wunderground v.1.15,2013-01-24 10:08:00,
2013-01-24 05:13:00,22.4,13.8,30.26,WNW,301,2.0,6.0,69,0.00,,,0.00,0,Wunderground v.1.15,2013-01-24 10:13:00,
2013-01-24 05:18:00,22.3,13.3,30.26,NNW,345,4.0,6.0,68,0.00,,,0.00,0,Wunderground v.1.15,2013-01-24 10:18:00,
2013-01-24 05:23:00,22.3,13.0,30.27,NW,326,2.0,4.0,67,0.00,,,0.00,0,Wunderground v.1.15,2013-01-24 10:23:00,
2013-01-24 05:28:00,22.4,13.1,30.28,NW,314,5.0,5.0,67,0.00,,,0.00,0,Wunderground v.1.15,2013-01-24 10:28:00,
2013-01-24 05:33:00,22.6,11.5,30.28,NW,319,3.0,7.0,62,0.00,,,0.00,0,Wunderground v.1.15,2013-01-24 10:33:00,
2013-01-24 05:38:00,22.7,12.3,30.28,North,356,4.0,7.0,64,0.00,,,0.00,0,Wunderground v.1.15,2013-01-24 10:38:00,
2013-01-24 05:43:00,22.6,12.2,30.29,NW,316,1.0,4.0,64,0.00,,,0.00,0,Wunderground v.1.15,2013-01-24 10:43:00,
2013-01-24 05:48:00,22.7,11.6,30.29,NNW,335,4.0,6.0,62,0.00,,,0.00,0,Wunderground v.1.15,2013-01-24 10:48:00,
2013-01-24 05:54:00,22.6,11.2,30.30,NW,313,6.0,10.0,61,0.00,,,0.00,0,Wunderground v.1.15,2013-01-24 10:54:00,
2013-01-24 05:59:00,22.6,11.5,30.30,NW,315,2.0,10.0,62,0.00,,,0.00,0,Wunderground v.1.15,2013-01-24 10:59:00,
2013-01-24 06:04:00,22.7,11.3,30.31,NW,315,3.0,9.0,61,0.00,,,0.00,0,Wunderground v.1.15,2013-01-24 11:04:00,
2013-01-24 06:09:00,22.6,11.2,30.31,NNE,12,4.0,9.0,61,0.00,,,0.00,0,Wunderground v.1.15,2013-01-24 11:09:00,
2013-01-24 06:14:00,22.5,10.7,30.31,North,354,3.0,7.0,60,0.00,,,0.00,0,Wunderground v.1.15,2013-01-24 11:14:00,
2013-01-24 06:19:00,22.4,10.6,30.32,NNW,336,3.0,8.0,60,0.00,,,0.00,0,Wunderground v.1.15,2013-01-24 11:19:00,
2013-01-24 06:24:00,22.4,11.0,30.32,NNW,342,3.0,6.0,61,0.00,,,0.00,0,Wunderground v.1.15,2013-01-24 11:24:00,
2013-01-24 06:29:00,22.2,10.4,30.32,NNW,335,1.0,6.0,60,0.00,,,0.00,0,Wunderground v.1.15,2013-01-24 11:29:00,
2013-01-24 06:34:00,21.9,9.0,30.33,North,349,6.0,7.0,57,0.00,,,0.00,0,Wunderground v.1.15,2013-01-24 11:34:00,
2013-01-24 06:38:00,21.8,9.3,30.33,North,1,3.0,7.0,58,0.00,,,0.00,0,Wunderground v.1.15,2013-01-24 11:38:00,
2013-01-24 06:44:00,21.7,9.9,30.33,NW,322,4.0,4.0,60,0.00,,,0.00,0,Wunderground v.1.15,2013-01-24 11:44:00,
2013-01-24 06:49:00,21.5,9.4,30.34,WNW,295,10.0,10.0,59,0.00,,,0.00,0,Wunderground v.1.15,2013-01-24 11:49:00,
2013-01-24 06:53:00,21.4,9.7,30.34,NW,304,11.0,12.0,60,0.00,,,0.00,0,Wunderground v.1.15,2013-01-24 11:53:00,
2013-01-24 06:58:00,21.3,9.2,30.35,NW,307,6.0,12.0,59,0.00,,,0.00,0,Wunderground v.1.15,2013-01-24 11:58:00,
2013-01-24 07:04:00,21.1,9.4,30.35,NW,307,2.0,9.0,60,0.00,,,0.00,0,Wunderground v.1.15,2013-01-24 12:04:00,
2013-01-24 07:09:00,20.9,8.8,30.36,NNW,343,3.0,9.0,59,0.00,,,0.00,0,Wunderground v.1.15,2013-01-24 12:09:00,
2013-01-24 07:14:00,20.8,8.3,30.36,North,357,2.0,10.0,58,0.00,,,0.00,0,Wunderground v.1.15,2013-01-24 12:14:00,
2013-01-24 07:19:00,20.7,8.2,30.36,NW,305,6.0,10.0,58,0.00,,,0.00,0,Wunderground v.1.15,2013-01-24 12:19:00,
2013-01-24 07:24:00,20.5,8.8,30.37,WNW,303,2.0,6.0,60,0.00,,,0.00,0,Wunderground v.1.15,2013-01-24 12:24:00,
2013-01-24 07:29:00,20.4,8.7,30.37,NNW,330,3.0,6.0,60,0.00,,,0.00,0,Wunderground v.1.15,2013-01-24 12:29:00,
2013-01-24 07:34:00,20.3,7.9,30.37,NW,325,2.0,4.0,58,0.00,,,0.00,0,Wunderground v.1.15,2013-01-24 12:34:00,
2013-01-24 07:39:00,20.4,8.0,30.38,NW,314,2.0,6.0,58,0.00,,,0.00,0,Wunderground v.1.15,2013-01-24 12:39:00,
2013-01-24 07:44:00,20.3,7.9,30.38,WNW,301,8.0,10.0,58,0.00,,,0.00,0,Wunderground v.1.15,2013-01-24 12:44:00,
2013-01-24 07:49:00,20.3,7.1,30.39,NW,324,0.0,10.0,56,0.00,,,0.00,0,Wunderground v.1.15,2013-01-24 12:49:00,
2013-01-24 07:54:00,20.2,7.0,30.39,NW,308,3.0,9.0,56,0.00,,,0.00,0,Wunderground v.1.15,2013-01-24 12:54:00,
2013-01-24 07:59:00,20.1,6.9,30.39,NW,325,2.0,2.0,56,0.00,,,0.00,0,Wunderground v.1.15,2013-01-24 12:59:00,
2013-01-24 08:04:00,20.1,6.5,30.40,NW,316,0.0,8.0,55,0.00,,,0.00,0,Wunderground v.1.15,2013-01-24 13:04:00,
2013-01-24 08:09:00,20.1,7.3,30.40,North,353,1.0,2.0,57,0.00,,,0.00,0,Wunderground v.1.15,2013-01-24 13:09:00,
2013-01-24 08:14:00,20.3,7.1,30.41,NNW,338,2.0,6.0,56,0.00,,,0.00,0,Wunderground v.1.15,2013-01-24 13:14:00,
2013-01-24 08:20:00,20.3,7.1,30.41,North,353,5.0,5.0,56,0.00,,,0.00,0,Wunderground v.1.15,2013-01-24 13:20:00,
2013-01-24 08:25:00,20.3,7.1,30.41,North,349,3.0,7.0,56,0.00,,,0.00,0,Wunderground v.1.15,2013-01-24 13:25:00,
2013-01-24 08:30:00,20.2,6.6,30.42,North,349,3.0,4.0,55,0.00,,,0.00,0,Wunderground v.1.15,2013-01-24 13:30:00,
2013-01-24 08:35:00,20.3,7.1,30.42,NNW,343,2.0,4.0,56,0.00,,,0.00,0,Wunderground v.1.15,2013-01-24 13:35:00,
2013-01-24 08:40:00,20.4,6.8,30.42,NNW,340,2.0,6.0,55,0.00,,,0.00,0,Wunderground v.1.15,2013-01-24 13:40:00,
2013-01-24 08:45:00,20.4,7.2,30.43,NNW,342,1.0,7.0,56,0.00,,,0.00,0,Wunderground v.1.15,2013-01-24 13:45:00,
2013-01-24 08:50:00,20.4,7.6,30.43,NW,304,4.0,7.0,57,0.00,,,0.00,0,Wunderground v.1.15,2013-01-24 13:50:00,
2013-01-24 08:55:00,20.4,8.0,30.44,WNW,301,6.0,8.0,58,0.00,,,0.00,0,Wunderground v.1.15,2013-01-24 13:55:00,
2013-01-24 09:02:00,20.4,7.2,30.44,NW,312,5.0,7.0,56,0.00,,,0.00,0,Wunderground v.1.15,2013-01-24 14:02:00,
2013-01-24 09:07:00,20.5,7.7,30.44,NW,319,3.0,7.0,57,0.00,,,0.00,0,Wunderground v.1.15,2013-01-24 14:07:00,
2013-01-24 09:12:00,20.7,8.6,30.45,NW,310,2.0,8.0,59,0.00,,,0.00,0,Wunderground v.1.15,2013-01-24 14:12:00,
2013-01-24 09:17:00,20.7,7.5,30.45,NW,313,4.0,8.0,56,0.00,,,0.00,0,Wunderground v.1.15,2013-01-24 14:17:00,
2013-01-24 09:22:00,20.6,7.0,30.46,NE,51,2.0,7.0,55,0.00,,,0.00,0,Wunderground v.1.15,2013-01-24 14:22:00,
2013-01-24 09:27:00,20.8,7.9,30.46,NW,316,5.0,7.0,57,0.00,,,0.00,0,Wunderground v.1.15,2013-01-24 14:27:00,
2013-01-24 09:32:00,21.1,7.8,30.46,NNE,21,4.0,6.0,56,0.00,,,0.00,0,Wunderground v.1.15,2013-01-24 14:32:00,
2013-01-24 09:37:00,21.3,6.8,30.46,NNW,342,4.0,6.0,53,0.00,,,0.00,0,Wunderground v.1.15,2013-01-24 14:37:00,
2013-01-24 09:42:00,21.2,7.1,30.46,NNW,347,4.0,5.0,54,0.00,,,0.00,0,Wunderground v.1.15,2013-01-24 14:42:00,
2013-01-24 09:47:00,20.8,6.3,30.47,NNW,335,3.0,9.0,53,0.00,,,0.00,0,Wunderground v.1.15,2013-01-24 14:47:00,
2013-01-24 09:52:00,20.8,6.7,30.47,North,357,5.0,8.0,54,0.00,,,0.00,0,Wunderground v.1.15,2013-01-24 14:52:00,
2013-01-24 09:57:00,20.7,6.7,30.48,NW,315,6.0,8.0,54,0.00,,,0.00,0,Wunderground v.1.15,2013-01-24 14:57:00,
2013-01-24 10:02:00,21.0,6.9,30.48,North,359,1.0,5.0,54,0.00,,,0.00,0,Wunderground v.1.15,2013-01-24 15:02:00,
2013-01-24 10:07:00,21.0,6.9,30.48,North,351,3.0,7.0,54,0.00,,,0.00,0,Wunderground v.1.15,2013-01-24 15:07:00,
2013-01-24 10:12:00,21.1,7.0,30.49,NW,315,4.0,7.0,54,0.00,,,0.00,0,Wunderground v.1.15,2013-01-24 15:12:00,
2013-01-24 12:54:00,25.7,7.3,30.52,ENE,62,2.0,2.0,45,0.00,,,0.00,0,Wunderground v.1.15,2013-01-24 17:54:00,
2013-01-24 12:59:00,25.0,6.1,30.52,ENE,65,2.0,2.0,44,0.00,,,0.00,0,Wunderground v.1.15,2013-01-24 17:59:00,
2013-01-24 13:04:00,24.6,6.7,30.52,ESE,111,1.0,3.0,46,0.00,,,0.00,0,Wunderground v.1.15,2013-01-24 18:04:00,
2013-01-24 13:09:00,25.3,7.4,30.51,South,187,1.0,2.0,46,0.00,,,0.00,0,Wunderground v.1.15,2013-01-24 18:09:00,
2013-01-24 13:14:00,25.6,7.7,30.51,North,5,3.0,4.0,46,0.00,,,0.00,0,Wunderground v.1.15,2013-01-24 18:14:00,
2013-01-24 13:19:00,25.2,6.3,30.51,North,1,2.0,4.0,44,0.00,,,0.00,0,Wunderground v.1.15,2013-01-24 18:19:00,
2013-01-24 13:24:00,24.5,5.2,30.51,North,1,1.0,4.0,43,0.00,,,0.00,0,Wunderground v.1.15,2013-01-24 18:24:00,
2013-01-24 13:29:00,24.9,6.0,30.51,SSE,156,2.0,2.0,44,0.00,,,0.00,0,Wunderground v.1.15,2013-01-24 18:29:00,
2013-01-24 13:34:00,25.8,6.3,30.51,NW,326,2.0,5.0,43,0.00,,,0.00,0,Wunderground v.1.15,2013-01-24 18:34:00,
2013-01-24 13:39:00,26.0,5.5,30.50,North,1,2.0,2.0,41,0.00,,,0.00,0,Wunderground v.1.15,2013-01-24 18:39:00,
2013-01-24 13:44:00,25.7,4.7,30.50,NNW,344,5.0,6.0,40,0.00,,,0.00,0,Wunderground v.1.15,2013-01-24 18:44:00,
2013-01-24 13:50:00,25.5,5.0,30.51,North,2,2.0,2.0,41,0.00,,,0.00,0,Wunderground v.1.15,2013-01-24 18:50:00,
2013-01-24 13:55:00,25.1,5.2,30.50,ENE,77,4.0,6.0,42,0.00,,,0.00,0,Wunderground v.1.15,2013-01-24 18:55:00,
2013-01-24 14:00:00,25.3,4.8,30.50,ESE,102,1.0,4.0,41,0.00,,,0.00,0,Wunderground v.1.15,2013-01-24 19:00:00,
2013-01-24 14:05:00,25.9,4.9,30.50,North,359,1.0,4.0,40,0.00,,,0.00,0,Wunderground v.1.15,2013-01-24 19:05:00,
2013-01-24 14:10:00,26.0,4.9,30.50,NNE,18,2.0,5.0,40,0.00,,,0.00,0,Wunderground v.1.15,2013-01-24 19:10:00,
2013-01-24 14:15:00,26.2,4.6,30.50,NNW,340,1.0,5.0,39,0.00,,,0.00,0,Wunderground v.1.15,2013-01-24 19:15:00,
2013-01-24 14:20:00,26.2,5.1,30.50,ENE,73,1.0,2.0,40,0.00,,,0.00,0,Wunderground v.1.15,2013-01-24 19:20:00,
2013-01-24 14:25:00,26.2,5.1,30.49,North,3,0.0,5.0,40,0.00,,,0.00,0,Wunderground v.1.15,2013-01-24 19:25:00,
2013-01-24 14:30:00,26.8,5.7,30.49,East,101,6.0,6.0,40,0.00,,,0.00,0,Wunderground v.1.15,2013-01-24 19:30:00,
2013-01-24 14:35:00,26.9,5.2,30.50,ENE,76,4.0,6.0,39,0.00,,,0.00,0,Wunderground v.1.15,2013-01-24 19:35:00,
2013-01-24 14:40:00,26.4,4.8,30.49,NNW,344,2.0,2.0,39,0.00,,,0.00,0,Wunderground v.1.15,2013-01-24 19:40:00,
2013-01-24 14:45:00,26.0,4.9,30.49,ENE,58,4.0,4.0,40,0.00,,,0.00,0,Wunderground v.1.15,2013-01-24 19:45:00,
2013-01-24 14:50:00,25.5,2.8,30.49,NNE,12,2.0,4.0,37,0.00,,,0.00,0,Wunderground v.1.15,2013-01-24 19:50:00,
2013-01-24 14:55:00,25.6,2.9,30.49,North,353,1.0,5.0,37,0.00,,,0.00,0,Wunderground v.1.15,2013-01-24 19:55:00,
2013-01-24 15:00:00,25.8,3.1,30.50,NE,53,0.0,3.0,37,0.00,,,0.00,0,Wunderground v.1.15,2013-01-24 20:00:00,
2013-01-24 15:05:00,25.9,3.2,30.49,North,357,2.0,4.0,37,0.00,,,0.00,0,Wunderground v.1.15,2013-01-24 20:05:00,
2013-01-24 15:10:00,26.3,3.5,30.49,NE,48,0.0,2.0,37,0.00,,,0.00,0,Wunderground v.1.15,2013-01-24 20:10:00,
2013-01-24 15:15:00,27.0,4.1,30.50,South,175,2.0,3.0,37,0.00,,,0.00,0,Wunderground v.1.15,2013-01-24 20:15:00,
2013-01-24 15:20:00,27.6,4.1,30.50,WNW,289,0.0,1.0,36,0.00,,,0.00,0,Wunderground v.1.15,2013-01-24 20:20:00,
2013-01-24 15:25:00,27.2,3.7,30.50,North,0,1.0,3.0,36,0.00,,,0.00,0,Wunderground v.1.15,2013-01-24 20:25:00,
2013-01-24 15:30:00,27.1,3.6,30.50,ENE,78,0.0,3.0,36,0.00,,,0.00,0,Wunderground v.1.15,2013-01-24 20:30:00,
2013-01-24 15:35:00,27.0,2.9,30.50,WNW,301,1.0,3.0,35,0.00,,,0.00,0,Wunderground v.1.15,2013-01-24 20:35:00,
2013-01-24 15:41:00,26.9,3.5,30.50,WNW,302,0.0,1.0,36,0.00,,,0.00,0,Wunderground v.1.15,2013-01-24 20:41:00,
2013-01-24 15:46:00,26.8,3.4,30.50,North,5,5.0,5.0,36,0.00,,,0.00,0,Wunderground v.1.15,2013-01-24 20:46:00,
2013-01-24 15:51:00,26.6,3.2,30.50,North,359,1.0,3.0,36,0.00,,,0.00,0,Wunderground v.1.15,2013-01-24 20:51:00,
2013-01-24 15:56:00,26.7,3.3,30.50,North,359,1.0,3.0,36,0.00,,,0.00,0,Wunderground v.1.15,2013-01-24 20:56:00,
2013-01-24 16:01:00,26.7,3.3,30.50,North,359,0.0,2.0,36,0.00,,,0.00,0,Wunderground v.1.15,2013-01-24 21:01:00,
2013-01-24 16:06:00,26.5,3.1,30.50,North,351,0.0,3.0,36,0.00,,,0.00,0,Wunderground v.1.15,2013-01-24 21:06:00,
2013-01-24 16:11:00,26.5,3.7,30.50,North,351,1.0,2.0,37,0.00,,,0.00,0,Wunderground v.1.15,2013-01-24 21:11:00,
2013-01-24 16:16:00,26.7,3.3,30.50,NE,54,0.0,3.0,36,0.00,,,0.00,0,Wunderground v.1.15,2013-01-24 21:16:00,
2013-01-24 16:21:00,26.7,4.5,30.50,North,0,2.0,3.0,38,0.00,,,0.00,0,Wunderground v.1.15,2013-01-24 21:21:00,
2013-01-24 16:26:00,26.8,5.1,30.50,NNW,347,0.0,3.0,39,0.00,,,0.00,0,Wunderground v.1.15,2013-01-24 21:26:00,
2013-01-24 16:31:00,26.6,4.9,30.50,NNW,348,2.0,4.0,39,0.00,,,0.00,0,Wunderground v.1.15,2013-01-24 21:31:00,
2013-01-24 16:36:00,26.3,3.5,30.50,North,0,0.0,4.0,37,0.00,,,0.00,0,Wunderground v.1.15,2013-01-24 21:36:00,
2013-01-24 16:41:00,26.1,3.3,30.50,ENE,62,2.0,3.0,37,0.00,,,0.00,0,Wunderground v.1.15,2013-01-24 21:41:00,
2013-01-24 16:46:00,25.9,3.2,30.50,North,10,4.0,4.0,37,0.00,,,0.00,0,Wunderground v.1.15,2013-01-24 21:46:00,
2013-01-24 16:51:00,26.0,2.7,30.49,SE,129,3.0,4.0,36,0.00,,,0.00,0,Wunderground v.1.15,2013-01-24 21:51:00,
2013-01-24 16:56:00,25.8,2.5,30.50,East,97,2.0,4.0,36,0.00,,,0.00,0,Wunderground v.1.15,2013-01-24 21:56:00,
2013-01-24 17:01:00,25.6,2.9,30.50,ESE,118,1.0,4.0,37,0.00,,,0.00,0,Wunderground v.1.15,2013-01-24 22:01:00,
2013-01-24 17:06:00,25.5,3.4,30.50,ESE,118,0.0,4.0,38,0.00,,,0.00,0,Wunderground v.1.15,2013-01-24 22:06:00,
2013-01-24 17:12:00,25.3,2.6,30.50,ESE,103,1.0,1.0,37,0.00,,,0.00,0,Wunderground v.1.15,2013-01-24 22:12:00,
2013-01-24 17:16:00,25.2,3.1,30.50,ENE,73,0.0,2.0,38,0.00,,,0.00,0,Wunderground v.1.15,2013-01-24 22:16:00,
2013-01-24 17:22:00,25.0,3.5,30.51,ENE,70,0.0,2.0,39,0.00,,,0.00,0,Wunderground v.1.15,2013-01-24 22:22:00,
2013-01-24 17:27:00,24.8,3.3,30.51,ENE,70,0.0,2.0,39,0.00,,,0.00,0,Wunderground v.1.15,2013-01-24 22:27:00,
2013-01-24 17:32:00,24.6,2.6,30.51,ENE,70,0.0,0.0,38,0.00,,,0.00,0,Wunderground v.1.15,2013-01-24 22:32:00,
2013-01-24 17:37:00,24.5,3.0,30.51,ENE,70,0.0,0.0,39,0.00,,,0.00,0,Wunderground v.1.15,2013-01-24 22:37:00,
2013-01-24 17:42:00,24.3,3.4,30.51,ENE,70,0.0,0.0,40,0.00,,,0.00,0,Wunderground v.1.15,2013-01-24 22:42:00,
2013-01-24 17:47:00,24.2,3.9,30.51,ENE,70,1.0,2.0,41,0.00,,,0.00,0,Wunderground v.1.15,2013-01-24 22:47:00,
2013-01-24 17:52:00,24.1,4.3,30.51,ENE,70,1.0,2.0,42,0.00,,,0.00,0,Wunderground v.1.15,2013-01-24 22:52:00,
2013-01-24 17:57:00,23.9,4.1,30.51,ENE,70,0.0,2.0,42,0.00,,,0.00,0,Wunderground v.1.15,2013-01-24 22:57:00,
2013-01-24 18:02:00,23.7,3.9,30.51,ENE,70,0.0,0.0,42,0.00,,,0.00,0,Wunderground v.1.15,2013-01-24 23:02:00,
2013-01-24 18:07:00,23.8,3.0,30.52,ENE,67,0.0,3.0,40,0.00,,,0.00,0,Wunderground v.1.15,2013-01-24 23:07:00,
2013-01-24 18:12:00,23.6,3.3,30.52,ENE,67,0.0,0.0,41,0.00,,,0.00,0,Wunderground v.1.15,2013-01-24 23:12:00,
2013-01-24 18:17:00,23.5,4.2,30.52,ENE,67,0.0,1.0,43,0.00,,,0.00,0,Wunderground v.1.15,2013-01-24 23:17:00,
2013-01-24 18:22:00,23.5,3.7,30.52,NE,47,0.0,2.0,42,0.00,,,0.00,0,Wunderground v.1.15,2013-01-24 23:22:00,
2013-01-24 18:27:00,23.4,4.2,30.53,NE,47,0.0,2.0,43,0.00,,,0.00,0,Wunderground v.1.15,2013-01-24 23:27:00,
2013-01-24 18:32:00,23.3,4.1,30.53,NE,47,0.0,1.0,43,0.00,,,0.00,0,Wunderground v.1.15,2013-01-24 23:32:00,
2013-01-24 18:37:00,23.1,4.4,30.53,NE,47,0.0,1.0,44,0.00,,,0.00,0,Wunderground v.1.15,2013-01-24 23:37:00,
2013-01-24 18:42:00,23.0,4.3,30.53,NE,47,0.0,1.0,44,0.00,,,0.00,0,Wunderground v.1.15,2013-01-24 23:42:00,
2013-01-24 18:47:00,22.9,4.7,30.53,NE,47,0.0,1.0,45,0.00,,,0.00,0,Wunderground v.1.15,2013-01-24 23:47:00,
2013-01-24 18:52:00,22.7,5.9,30.53,NE,47,1.0,1.0,48,0.00,,,0.00,0,Wunderground v.1.15,2013-01-24 23:52:00,
2013-01-24 18:57:00,22.5,5.7,30.53,NE,47,0.0,1.0,48,0.00,,,0.00,0,Wunderground v.1.15,2013-01-24 23:57:00,
2013-01-24 19:02:00,22.3,6.0,30.53,NE,47,0.0,0.0,49,0.00,,,0.00,0,Wunderground v.1.15,2013-01-25 00:02:00,
2013-01-24 19:07:00,22.1,6.7,30.53,NE,47,0.0,2.0,51,0.00,,,0.00,0,Wunderground v.1.15,2013-01-25 00:07:00,
2013-01-24 19:12:00,22.0,6.2,30.53,NE,47,1.0,2.0,50,0.00,,,0.00,0,Wunderground v.1.15,2013-01-25 00:12:00,
2013-01-24 19:17:00,21.7,6.3,30.53,NE,47,0.0,2.0,51,0.00,,,0.00,0,Wunderground v.1.15,2013-01-25 00:17:00,
2013-01-24 19:22:00,21.4,6.5,30.53,NE,47,0.0,0.0,52,0.00,,,0.00,0,Wunderground v.1.15,2013-01-25 00:22:00,
2013-01-24 19:27:00,21.2,6.3,30.53,NE,47,0.0,0.0,52,0.00,,,0.00,0,Wunderground v.1.15,2013-01-25 00:27:00,
2013-01-24 19:33:00,20.9,7.2,30.53,NE,47,0.0,0.0,55,0.00,,,0.00,0,Wunderground v.1.15,2013-01-25 00:33:00,
2013-01-24 19:38:00,20.8,7.2,30.53,NE,47,0.0,0.0,55,0.00,,,0.00,0,Wunderground v.1.15,2013-01-25 00:38:00,
2013-01-24 19:43:00,20.6,7.4,30.53,NE,47,0.0,0.0,56,0.00,,,0.00,0,Wunderground v.1.15,2013-01-25 00:43:00,
2013-01-24 19:48:00,20.4,7.2,30.53,NE,47,0.0,0.0,56,0.00,,,0.00,0,Wunderground v.1.15,2013-01-25 00:48:00,
2013-01-24 19:53:00,20.1,7.3,30.53,NE,47,0.0,0.0,57,0.00,,,0.00,0,Wunderground v.1.15,2013-01-25 00:53:00,
2013-01-24 19:58:00,20.0,7.2,30.53,NE,47,0.0,0.0,57,0.00,,,0.00,0,Wunderground v.1.15,2013-01-25 00:58:00,
2013-01-24 20:03:00,19.8,7.0,30.53,NE,47,0.0,0.0,57,0.00,,,0.00,0,Wunderground v.1.15,2013-01-25 01:03:00,
2013-01-24 20:09:00,19.6,7.2,30.52,NE,47,0.0,0.0,58,0.00,,,0.00,0,Wunderground v.1.15,2013-01-25 01:09:00,
2013-01-24 20:14:00,19.5,6.7,30.52,NE,47,0.0,0.0,57,0.00,,,0.00,0,Wunderground v.1.15,2013-01-25 01:14:00,
2013-01-24 20:19:00,19.4,7.8,30.52,NE,47,0.0,0.0,60,0.00,,,0.00,0,Wunderground v.1.15,2013-01-25 01:19:00,
2013-01-24 20:24:00,19.3,7.3,30.52,NE,47,0.0,0.0,59,0.00,,,0.00,0,Wunderground v.1.15,2013-01-25 01:24:00,
2013-01-24 20:29:00,19.2,7.6,30.52,NE,47,0.0,0.0,60,0.00,,,0.00,0,Wunderground v.1.15,2013-01-25 01:29:00,
2013-01-24 20:34:00,19.2,7.2,30.52,NE,47,0.0,0.0,59,0.00,,,0.00,0,Wunderground v.1.15,2013-01-25 01:34:00,
2013-01-24 20:39:00,19.1,7.1,30.52,NE,47,0.0,0.0,59,0.00,,,0.00,0,Wunderground v.1.15,2013-01-25 01:39:00,
2013-01-24 20:44:00,19.0,7.0,30.52,NE,47,0.0,0.0,59,0.00,,,0.00,0,Wunderground v.1.15,2013-01-25 01:44:00,
2013-01-24 20:50:00,19.1,8.6,30.51,NE,47,0.0,0.0,63,0.00,,,0.00,0,Wunderground v.1.15,2013-01-25 01:50:00,
2013-01-24 20:55:00,19.1,7.8,30.50,NE,47,0.0,0.0,61,0.00,,,0.00,0,Wunderground v.1.15,2013-01-25 01:55:00,
2013-01-24 21:00:00,19.2,7.6,30.50,NE,47,0.0,1.0,60,0.00,,,0.00,0,Wunderground v.1.15,2013-01-25 02:00:00,
2013-01-24 21:06:00,19.3,7.3,30.51,NE,47,0.0,1.0,59,0.00,,,0.00,0,Wunderground v.1.15,2013-01-25 02:06:00,
2013-01-24 21:12:00,19.2,7.9,30.50,NE,47,0.0,0.0,61,0.00,,,0.00,0,Wunderground v.1.15,2013-01-25 02:12:00,
2013-01-24 21:17:00,19.0,7.7,30.51,NE,47,0.0,0.0,61,0.00,,,0.00,0,Wunderground v.1.15,2013-01-25 02:17:00,
2013-01-24 21:22:00,19.0,8.1,30.52,NE,47,0.0,0.0,62,0.00,,,0.00,0,Wunderground v.1.15,2013-01-25 02:22:00,
2013-01-24 21:27:00,18.9,7.7,30.52,NE,47,0.0,0.0,61,0.00,,,0.00,0,Wunderground v.1.15,2013-01-25 02:27:00,
2013-01-24 21:32:00,18.9,8.0,30.52,NE,47,0.0,0.0,62,0.00,,,0.00,0,Wunderground v.1.15,2013-01-25 02:32:00,
2013-01-24 21:37:00,18.8,7.9,30.51,NE,47,0.0,0.0,62,0.00,,,0.00,0,Wunderground v.1.15,2013-01-25 02:37:00,
2013-01-24 21:42:00,19.0,7.4,30.50,NE,47,0.0,2.0,60,0.00,,,0.00,0,Wunderground v.1.15,2013-01-25 02:42:00,
2013-01-24 21:47:00,19.4,6.6,30.50,ENE,66,2.0,2.0,57,0.00,,,0.00,0,Wunderground v.1.15,2013-01-25 02:47:00,
2013-01-24 21:52:00,19.7,6.5,30.50,SE,142,1.0,3.0,56,0.00,,,0.00,0,Wunderground v.1.15,2013-01-25 02:52:00,
2013-01-24 21:57:00,19.9,6.3,30.50,ESE,121,2.0,3.0,55,0.00,,,0.00,0,Wunderground v.1.15,2013-01-25 02:57:00,
2013-01-24 22:02:00,20.1,6.5,30.49,ESE,105,2.0,3.0,55,0.00,,,0.00,0,Wunderground v.1.15,2013-01-25 03:02:00,
2013-01-24 22:07:00,20.2,6.6,30.49,SSE,164,2.0,3.0,55,0.00,,,0.00,0,Wunderground v.1.15,2013-01-25 03:07:00,
2013-01-24 22:12:00,20.4,6.8,30.49,SSE,156,2.0,3.0,55,0.00,,,0.00,0,Wunderground v.1.15,2013-01-25 03:12:00,
2013-01-24 22:17:00,20.4,6.4,30.49,SE,140,3.0,3.0,54,0.00,,,0.00,0,Wunderground v.1.15,2013-01-25 03:17:00,
2013-01-24 22:22:00,20.4,6.8,30.49,SSE,147,1.0,2.0,55,0.00,,,0.00,0,Wunderground v.1.15,2013-01-25 03:22:00,
2013-01-24 22:27:00,20.5,6.5,30.49,South,182,0.0,2.0,54,0.00,,,0.00,0,Wunderground v.1.15,2013-01-25 03:27:00,
2013-01-24 22:32:00,20.6,6.6,30.49,SE,139,0.0,2.0,54,0.00,,,0.00,0,Wunderground v.1.15,2013-01-25 03:32:00,
2013-01-24 22:37:00,20.6,6.2,30.48,East,93,2.0,3.0,53,0.00,,,0.00,0,Wunderground v.1.15,2013-01-25 03:37:00,
2013-01-24 22:42:00,20.6,5.7,30.48,East,86,1.0,4.0,52,0.00,,,0.00,0,Wunderground v.1.15,2013-01-25 03:42:00,
2013-01-24 22:47:00,20.7,5.8,30.48,SE,131,2.0,4.0,52,0.00,,,0.00,0,Wunderground v.1.15,2013-01-25 03:47:00,
2013-01-24 22:52:00,20.7,5.8,30.48,SE,125,1.0,2.0,52,0.00,,,0.00,0,Wunderground v.1.15,2013-01-25 03:52:00,
2013-01-24 22:57:00,20.7,5.4,30.48,East,101,0.0,2.0,51,0.00,,,0.00,0,Wunderground v.1.15,2013-01-25 03:57:00,
2013-01-24 23:02:00,20.8,5.9,30.48,ESE,102,1.0,2.0,52,0.00,,,0.00,0,Wunderground v.1.15,2013-01-25 04:02:00,
2013-01-24 23:07:00,20.8,5.9,30.48,SE,125,1.0,3.0,52,0.00,,,0.00,0,Wunderground v.1.15,2013-01-25 04:07:00,
2013-01-24 23:12:00,20.9,5.6,30.48,SE,126,2.0,2.0,51,0.00,,,0.00,0,Wunderground v.1.15,2013-01-25 04:12:00,
2013-01-24 23:17:00,20.8,5.9,30.48,ESE,107,2.0,2.0,52,0.00,,,0.00,0,Wunderground v.1.15,2013-01-25 04:17:00,
2013-01-24 23:22:00,20.9,6.0,30.48,ESE,107,0.0,1.0,52,0.00,,,0.00,0,Wunderground v.1.15,2013-01-25 04:22:00,
2013-01-24 23:27:00,20.9,6.0,30.48,East,93,1.0,3.0,52,0.00,,,0.00,0,Wunderground v.1.15,2013-01-25 04:27:00,
2013-01-24 23:32:00,20.9,5.6,30.47,ENE,78,3.0,4.0,51,0.00,,,0.00,0,Wunderground v.1.15,2013-01-25 04:32:00,
2013-01-24 23:37:00,20.9,5.6,30.47,ESE,119,2.0,4.0,51,0.00,,,0.00,0,Wunderground v.1.15,2013-01-25 04:37:00,
2013-01-24 23:42:00,21.0,5.2,30.47,East,97,1.0,2.0,50,0.00,,,0.00,0,Wunderground v.1.15,2013-01-25 04:42:00,
2013-01-24 23:47:00,21.1,6.2,30.48,East,98,2.0,2.0,52,0.00,,,0.00,0,Wunderground v.1.15,2013-01-25 04:47:00,
2013-01-24 23:52:00,21.1,5.8,30.47,East,97,2.0,3.0,51,0.00,,,0.00,0,Wunderground v.1.15,2013-01-25 04:52:00,
2013-01-24 23:57:00,21.2,5.4,30.47,SSE,150,1.0,3.0,50,0.00,,,0.00,0,Wunderground v.1.15,2013-01-25 04:57:00,